sensor_id;sensor_type;location;lat;lon;timestamp;pressure;altitude;pressure_sealevel;temperature;humidity
60479;BME280;46321;48.398;11.754;2022-08-21T00:00:41;96689.75;;;16.05;100.00
60479;BME280;46321;48.398;11.754;2022-08-21T00:03:09;96676.38;;;16.05;100.00
60479;BME280;46321;48.398;11.754;2022-08-21T00:05:41;96673.50;;;16.07;100.00
60479;BME280;46321;48.398;11.754;2022-08-21T00:08:07;96676.59;;;16.10;100.00
60479;BME280;46321;48.398;11.754;2022-08-21T00:10:33;96673.50;;;16.13;100.00
60479;BME280;46321;48.398;11.754;2022-08-21T00:13:00;96666.31;;;16.14;100.00
60479;BME280;46321;48.398;11.754;2022-08-21T00:15:28;96665.31;;;16.15;100.00
60479;BME280;46321;48.398;11.754;2022-08-21T00:17:54;96664.25;;;16.16;100.00
60479;BME280;46321;48.398;11.754;2022-08-21T00:20:21;96664.25;;;16.16;100.00
60479;BME280;46321;48.398;11.754;2022-08-21T00:22:47;96660.38;;;16.19;100.00
60479;BME280;46321;48.398;11.754;2022-08-21T00:25:13;96650.50;;;16.19;100.00
60479;BME280;46321;48.398;11.754;2022-08-21T00:27:39;96648.63;;;16.20;100.00
60479;BME280;46321;48.398;11.754;2022-08-21T00:30:08;96650.06;;;16.22;100.00
60479;BME280;46321;48.398;11.754;2022-08-21T00:32:36;96646.78;;;16.20;100.00
60479;BME280;46321;48.398;11.754;2022-08-21T00:35:04;96641.44;;;16.20;100.00
60479;BME280;46321;48.398;11.754;2022-08-21T00:37:29;96644.56;;;16.17;100.00
60479;BME280;46321;48.398;11.754;2022-08-21T00:39:55;96649.91;;;16.17;100.00
60479;BME280;46321;48.398;11.754;2022-08-21T00:42:20;96647.63;;;16.14;100.00
60479;BME280;46321;48.398;11.754;2022-08-21T00:44:47;96643.09;;;16.21;100.00
60479;BME280;46321;48.398;11.754;2022-08-21T00:47:13;96641.06;;;16.17;100.00
60479;BME280;46321;48.398;11.754;2022-08-21T00:49:39;96647.41;;;16.16;100.00
60479;BME280;46321;48.398;11.754;2022-08-21T00:52:08;96639.00;;;16.19;100.00
60479;BME280;46321;48.398;11.754;2022-08-21T00:54:34;96644.13;;;16.13;100.00
60479;BME280;46321;48.398;11.754;2022-08-21T00:57:03;96635.28;;;16.13;100.00
60479;BME280;46321;48.398;11.754;2022-08-21T00:59:33;96639.22;;;16.04;100.00
60479;BME280;46321;48.398;11.754;2022-08-21T01:02:01;96637.75;;;16.01;100.00
60479;BME280;46321;48.398;11.754;2022-08-21T01:04:26;96636.09;;;16.00;100.00
60479;BME280;46321;48.398;11.754;2022-08-21T01:06:52;96637.97;;;15.99;100.00
60479;BME280;46321;48.398;11.754;2022-08-21T01:09:17;96637.16;;;15.92;100.00
60479;BME280;46321;48.398;11.754;2022-08-21T01:11:44;96628.72;;;15.88;100.00
60479;BME280;46321;48.398;11.754;2022-08-21T01:14:11;96635.31;;;15.86;100.00
60479;BME280;46321;48.398;11.754;2022-08-21T01:16:39;96634.88;;;15.82;100.00
60479;BME280;46321;48.398;11.754;2022-08-21T01:19:06;96627.91;;;15.81;100.00
60479;BME280;46321;48.398;11.754;2022-08-21T01:21:32;96624.63;;;15.79;100.00
60479;BME280;46321;48.398;11.754;2022-08-21T01:23:58;96633.25;;;15.74;100.00
60479;BME280;46321;48.398;11.754;2022-08-21T01:26:27;96628.75;;;15.68;100.00
60479;BME280;46321;48.398;11.754;2022-08-21T01:29:00;96634.06;;;15.68;100.00
60479;BME280;46321;48.398;11.754;2022-08-21T01:31:28;96629.53;;;15.62;100.00
60479;BME280;46321;48.398;11.754;2022-08-21T01:33:55;96632.41;;;15.60;100.00
60479;BME280;46321;48.398;11.754;2022-08-21T01:36:22;96631.41;;;15.54;100.00
60479;BME280;46321;48.398;11.754;2022-08-21T01:38:47;96636.72;;;15.54;100.00
60479;BME280;46321;48.398;11.754;2022-08-21T01:41:14;96627.69;;;15.49;100.00
60479;BME280;46321;48.398;11.754;2022-08-21T01:43:40;96629.72;;;15.47;100.00
60479;BME280;46321;48.398;11.754;2022-08-21T01:46:05;96626.22;;;15.39;100.00
60479;BME280;46321;48.398;11.754;2022-08-21T01:48:31;96633.41;;;15.39;100.00
60479;BME280;46321;48.398;11.754;2022-08-21T01:50:57;96627.88;;;15.40;100.00
60479;BME280;46321;48.398;11.754;2022-08-21T01:53:22;96637.31;;;15.36;100.00
60479;BME280;46321;48.398;11.754;2022-08-21T01:55:47;96627.88;;;15.33;100.00
60479;BME280;46321;48.398;11.754;2022-08-21T01:58:13;96628.06;;;15.32;100.00
60479;BME280;46321;48.398;11.754;2022-08-21T02:00:38;96630.75;;;15.32;100.00
60479;BME280;46321;48.398;11.754;2022-08-21T02:03:03;96630.31;;;15.28;100.00
60479;BME280;46321;48.398;11.754;2022-08-21T02:05:29;96621.31;;;15.29;100.00
60479;BME280;46321;48.398;11.754;2022-08-21T02:07:54;96626.19;;;15.26;100.00
60479;BME280;46321;48.398;11.754;2022-08-21T02:10:25;96625.56;;;15.23;100.00
60479;BME280;46321;48.398;11.754;2022-08-21T02:12:52;96624.94;;;15.15;100.00
60479;BME280;46321;48.398;11.754;2022-08-21T02:15:17;96620.84;;;15.12;100.00
60479;BME280;46321;48.398;11.754;2022-08-21T02:17:49;96611.81;;;15.06;100.00
60479;BME280;46321;48.398;11.754;2022-08-21T02:20:20;96620.00;;;15.05;100.00
60479;BME280;46321;48.398;11.754;2022-08-21T02:22:45;96618.56;;;15.02;100.00
60479;BME280;46321;48.398;11.754;2022-08-21T02:25:11;96625.53;;;15.03;100.00
60479;BME280;46321;48.398;11.754;2022-08-21T02:27:39;96616.13;;;15.07;100.00
60479;BME280;46321;48.398;11.754;2022-08-21T02:30:06;96608.53;;;15.04;100.00
60479;BME280;46321;48.398;11.754;2022-08-21T02:32:32;96612.38;;;14.95;100.00
60479;BME280;46321;48.398;11.754;2022-08-21T02:34:57;96615.22;;;14.86;100.00
60479;BME280;46321;48.398;11.754;2022-08-21T02:37:23;96615.19;;;14.80;100.00
60479;BME280;46321;48.398;11.754;2022-08-21T02:39:49;96615.78;;;14.75;100.00
60479;BME280;46321;48.398;11.754;2022-08-21T02:42:15;96608.56;;;14.69;100.00
60479;BME280;46321;48.398;11.754;2022-08-21T02:44:40;96614.13;;;14.67;100.00
60479;BME280;46321;48.398;11.754;2022-08-21T02:47:06;96607.38;;;14.71;100.00
60479;BME280;46321;48.398;11.754;2022-08-21T02:49:31;96606.31;;;14.65;100.00
60479;BME280;46321;48.398;11.754;2022-08-21T02:51:56;96613.25;;;14.60;100.00
60479;BME280;46321;48.398;11.754;2022-08-21T02:54:22;96614.22;;;14.52;100.00
60479;BME280;46321;48.398;11.754;2022-08-21T02:56:47;96613.22;;;14.53;100.00
60479;BME280;46321;48.398;11.754;2022-08-21T02:59:12;96617.31;;;14.49;100.00
60479;BME280;46321;48.398;11.754;2022-08-21T03:01:37;96611.16;;;14.48;100.00
60479;BME280;46321;48.398;11.754;2022-08-21T03:04:03;96612.81;;;14.49;100.00
60479;BME280;46321;48.398;11.754;2022-08-21T03:06:28;96609.69;;;14.46;100.00
60479;BME280;46321;48.398;11.754;2022-08-21T03:08:54;96606.81;;;14.47;100.00
60479;BME280;46321;48.398;11.754;2022-08-21T03:11:19;96607.25;;;14.44;100.00
60479;BME280;46321;48.398;11.754;2022-08-21T03:13:45;96619.69;;;14.37;100.00
60479;BME280;46321;48.398;11.754;2022-08-21T03:16:11;96623.81;;;14.39;100.00
60479;BME280;46321;48.398;11.754;2022-08-21T03:18:37;96621.72;;;14.35;100.00
60479;BME280;46321;48.398;11.754;2022-08-21T03:21:02;96626.63;;;14.31;100.00
60479;BME280;46321;48.398;11.754;2022-08-21T03:23:28;96622.09;;;14.31;100.00
60479;BME280;46321;48.398;11.754;2022-08-21T03:25:56;96612.06;;;14.27;100.00
60479;BME280;46321;48.398;11.754;2022-08-21T03:28:21;96615.31;;;14.22;100.00
60479;BME280;46321;48.398;11.754;2022-08-21T03:30:49;96618.34;;;14.19;100.00
60479;BME280;46321;48.398;11.754;2022-08-21T03:33:16;96615.91;;;14.17;100.00
60479;BME280;46321;48.398;11.754;2022-08-21T03:35:43;96626.31;;;14.12;100.00
60479;BME280;46321;48.398;11.754;2022-08-21T03:38:09;96624.00;;;14.09;100.00
60479;BME280;46321;48.398;11.754;2022-08-21T03:40:37;96619.72;;;14.08;100.00
60479;BME280;46321;48.398;11.754;2022-08-21T03:43:03;96629.75;;;14.06;100.00
60479;BME280;46321;48.398;11.754;2022-08-21T03:45:28;96625.22;;;14.00;100.00
60479;BME280;46321;48.398;11.754;2022-08-21T03:47:59;96628.03;;;13.98;100.00
60479;BME280;46321;48.398;11.754;2022-08-21T03:50:31;96631.94;;;13.95;100.00
60479;BME280;46321;48.398;11.754;2022-08-21T03:52:57;96634.97;;;13.92;100.00
60479;BME280;46321;48.398;11.754;2022-08-21T03:55:23;96633.94;;;13.93;100.00
60479;BME280;46321;48.398;11.754;2022-08-21T03:57:49;96637.38;;;13.87;100.00
60479;BME280;46321;48.398;11.754;2022-08-21T04:00:16;96632.06;;;13.87;100.00
60479;BME280;46321;48.398;11.754;2022-08-21T04:02:42;96639.03;;;13.88;100.00
60479;BME280;46321;48.398;11.754;2022-08-21T04:05:10;96631.47;;;13.92;100.00
60479;BME280;46321;48.398;11.754;2022-08-21T04:07:35;96632.06;;;13.87;100.00
60479;BME280;46321;48.398;11.754;2022-08-21T04:10:02;96641.69;;;13.88;100.00
60479;BME280;46321;48.398;11.754;2022-08-21T04:12:27;96646.38;;;13.86;100.00
60479;BME280;46321;48.398;11.754;2022-08-21T04:14:53;96643.91;;;13.84;100.00
60479;BME280;46321;48.398;11.754;2022-08-21T04:17:18;96643.47;;;13.81;100.00
60479;BME280;46321;48.398;11.754;2022-08-21T04:19:44;96643.91;;;13.84;100.00
60479;BME280;46321;48.398;11.754;2022-08-21T04:22:10;96643.91;;;13.84;100.00
60479;BME280;46321;48.398;11.754;2022-08-21T04:24:35;96644.72;;;13.85;100.00
60479;BME280;46321;48.398;11.754;2022-08-21T04:27:00;96642.91;;;13.85;100.00
60479;BME280;46321;48.398;11.754;2022-08-21T04:29:26;96650.44;;;13.82;100.00
60479;BME280;46321;48.398;11.754;2022-08-21T04:31:51;96659.28;;;13.89;100.00
60479;BME280;46321;48.398;11.754;2022-08-21T04:34:18;96653.97;;;13.89;100.00
60479;BME280;46321;48.398;11.754;2022-08-21T04:36:43;96659.13;;;13.91;100.00
60479;BME280;46321;48.398;11.754;2022-08-21T04:39:09;96667.28;;;13.89;100.00
60479;BME280;46321;48.398;11.754;2022-08-21T04:41:34;96666.47;;;13.89;100.00
60479;BME280;46321;48.398;11.754;2022-08-21T04:44:00;96673.00;;;13.86;100.00
60479;BME280;46321;48.398;11.754;2022-08-21T04:46:26;96682.59;;;13.87;100.00
60479;BME280;46321;48.398;11.754;2022-08-21T04:48:51;96676.66;;;13.85;100.00
60479;BME280;46321;48.398;11.754;2022-08-21T04:51:26;96675.03;;;13.84;100.00
60479;BME280;46321;48.398;11.754;2022-08-21T04:53:57;96679.16;;;13.87;100.00
60479;BME280;46321;48.398;11.754;2022-08-21T04:56:28;96677.22;;;13.80;100.00
60479;BME280;46321;48.398;11.754;2022-08-21T04:58:57;96666.78;;;13.79;100.00
60479;BME280;46321;48.398;11.754;2022-08-21T05:01:24;96675.59;;;13.79;100.00
60479;BME280;46321;48.398;11.754;2022-08-21T05:03:58;96672.72;;;13.81;100.00
60479;BME280;46321;48.398;11.754;2022-08-21T05:06:25;96679.50;;;13.83;100.00
60479;BME280;46321;48.398;11.754;2022-08-21T05:08:52;96683.81;;;13.84;100.00
60479;BME280;46321;48.398;11.754;2022-08-21T05:11:19;96681.16;;;13.84;100.00
60479;BME280;46321;48.398;11.754;2022-08-21T05:13:45;96681.16;;;13.84;100.00
60479;BME280;46321;48.398;11.754;2022-08-21T05:16:10;96676.91;;;13.90;100.00
60479;BME280;46321;48.398;11.754;2022-08-21T05:18:36;96680.47;;;13.98;100.00
60479;BME280;46321;48.398;11.754;2022-08-21T05:21:02;96683.75;;;14.00;100.00
60479;BME280;46321;48.398;11.754;2022-08-21T05:23:27;96681.56;;;14.10;100.00
60479;BME280;46321;48.398;11.754;2022-08-21T05:25:53;96677.50;;;14.14;100.00
60479;BME280;46321;48.398;11.754;2022-08-21T05:28:19;96680.25;;;14.28;100.00
60479;BME280;46321;48.398;11.754;2022-08-21T05:30:44;96681.97;;;14.36;100.00
60479;BME280;46321;48.398;11.754;2022-08-21T05:33:10;96684.06;;;14.47;100.00
60479;BME280;46321;48.398;11.754;2022-08-21T05:35:36;96687.59;;;14.54;100.00
60479;BME280;46321;48.398;11.754;2022-08-21T05:38:03;96690.53;;;14.67;100.00
60479;BME280;46321;48.398;11.754;2022-08-21T05:40:28;96690.78;;;14.79;100.00
60479;BME280;46321;48.398;11.754;2022-08-21T05:42:55;96693.34;;;14.87;100.00
60479;BME280;46321;48.398;11.754;2022-08-21T05:45:26;96695.63;;;14.97;100.00
60479;BME280;46321;48.398;11.754;2022-08-21T05:47:51;96696.72;;;15.09;99.79
60479;BME280;46321;48.398;11.754;2022-08-21T05:50:16;96699.84;;;15.27;99.41
60479;BME280;46321;48.398;11.754;2022-08-21T05:52:42;96699.66;;;15.35;98.86
60479;BME280;46321;48.398;11.754;2022-08-21T05:55:07;96696.19;;;15.48;98.71
60479;BME280;46321;48.398;11.754;2022-08-21T05:57:32;96692.31;;;15.57;98.61
60479;BME280;46321;48.398;11.754;2022-08-21T05:59:58;96697.06;;;15.69;98.03
60479;BME280;46321;48.398;11.754;2022-08-21T06:02:23;96694.00;;;15.79;96.95
60479;BME280;46321;48.398;11.754;2022-08-21T06:04:48;96686.81;;;15.86;96.36
60479;BME280;46321;48.398;11.754;2022-08-21T06:07:14;96695.66;;;16.00;95.56
60479;BME280;46321;48.398;11.754;2022-08-21T06:09:40;96694.47;;;16.17;96.20
60479;BME280;46321;48.398;11.754;2022-08-21T06:12:07;96685.41;;;16.24;94.55
60479;BME280;46321;48.398;11.754;2022-08-21T06:14:34;96695.06;;;16.39;94.44
60479;BME280;46321;48.398;11.754;2022-08-21T06:17:07;96684.78;;;16.43;92.75
60479;BME280;46321;48.398;11.754;2022-08-21T06:19:33;96691.53;;;16.52;93.06
60479;BME280;46321;48.398;11.754;2022-08-21T06:21:58;96683.28;;;16.67;93.05
60479;BME280;46321;48.398;11.754;2022-08-21T06:24:24;96695.78;;;16.80;92.81
60479;BME280;46321;48.398;11.754;2022-08-21T06:26:50;96695.56;;;16.89;91.73
60479;BME280;46321;48.398;11.754;2022-08-21T06:29:15;96694.50;;;16.97;89.88
60479;BME280;46321;48.398;11.754;2022-08-21T06:31:42;96693.84;;;17.08;89.91
60479;BME280;46321;48.398;11.754;2022-08-21T06:34:08;96694.84;;;17.21;89.33
60479;BME280;46321;48.398;11.754;2022-08-21T06:36:33;96690.88;;;17.30;88.80
60479;BME280;46321;48.398;11.754;2022-08-21T06:38:59;96688.75;;;17.46;89.44
60479;BME280;46321;48.398;11.754;2022-08-21T06:41:25;96692.41;;;17.58;87.11
60479;BME280;46321;48.398;11.754;2022-08-21T06:43:51;96688.97;;;17.77;88.07
60479;BME280;46321;48.398;11.754;2022-08-21T06:46:16;96689.50;;;17.85;85.64
60479;BME280;46321;48.398;11.754;2022-08-21T06:48:41;96684.66;;;18.01;85.17
60479;BME280;46321;48.398;11.754;2022-08-21T06:51:06;96682.28;;;18.18;84.41
60479;BME280;46321;48.398;11.754;2022-08-21T06:53:32;96679.50;;;18.32;82.33
60479;BME280;46321;48.398;11.754;2022-08-21T06:55:57;96678.53;;;18.45;82.67
60479;BME280;46321;48.398;11.754;2022-08-21T06:58:23;96676.94;;;18.63;83.82
60479;BME280;46321;48.398;11.754;2022-08-21T07:00:49;96667.81;;;18.64;80.46
60479;BME280;46321;48.398;11.754;2022-08-21T07:03:25;96671.41;;;18.76;79.94
60479;BME280;46321;48.398;11.754;2022-08-21T07:05:52;96671.84;;;18.92;80.66
60479;BME280;46321;48.398;11.754;2022-08-21T07:08:17;96661.56;;;19.08;80.83
60479;BME280;46321;48.398;11.754;2022-08-21T07:10:43;96674.75;;;19.28;79.04
60479;BME280;46321;48.398;11.754;2022-08-21T07:13:09;96676.25;;;19.55;80.12
60479;BME280;46321;48.398;11.754;2022-08-21T07:15:34;96673.94;;;19.71;78.24
60479;BME280;46321;48.398;11.754;2022-08-21T07:18:00;96676.44;;;19.84;75.99
60479;BME280;46321;48.398;11.754;2022-08-21T07:20:28;96674.94;;;20.00;76.54
60479;BME280;46321;48.398;11.754;2022-08-21T07:22:53;96668.63;;;20.07;74.75
60479;BME280;46321;48.398;11.754;2022-08-21T07:25:19;96665.53;;;20.22;72.47
60479;BME280;46321;48.398;11.754;2022-08-21T07:27:44;96660.16;;;20.22;73.03
60479;BME280;46321;48.398;11.754;2022-08-21T07:30:10;96669.47;;;20.43;73.39
60479;BME280;46321;48.398;11.754;2022-08-21T07:32:35;96663.28;;;20.67;73.13
60479;BME280;46321;48.398;11.754;2022-08-21T07:35:01;96667.31;;;20.93;73.12
60479;BME280;46321;48.398;11.754;2022-08-21T07:37:26;96660.72;;;21.13;72.87
60479;BME280;46321;48.398;11.754;2022-08-21T07:39:51;96660.03;;;21.35;71.44
60479;BME280;46321;48.398;11.754;2022-08-21T07:42:17;96656.06;;;21.38;69.47
60479;BME280;46321;48.398;11.754;2022-08-21T07:44:42;96660.91;;;21.53;68.96
60479;BME280;46321;48.398;11.754;2022-08-21T07:47:08;96659.28;;;21.69;68.28
60479;BME280;46321;48.398;11.754;2022-08-21T07:49:33;96668.13;;;21.82;68.32
60479;BME280;46321;48.398;11.754;2022-08-21T07:51:58;96662.53;;;22.01;68.16
60479;BME280;46321;48.398;11.754;2022-08-21T07:54:24;96655.88;;;22.43;66.37
60479;BME280;46321;48.398;11.754;2022-08-21T07:56:50;96656.06;;;22.59;66.11
60479;BME280;46321;48.398;11.754;2022-08-21T07:59:15;96650.03;;;22.69;66.23
60479;BME280;46321;48.398;11.754;2022-08-21T08:01:40;96652.66;;;22.86;64.67
60479;BME280;46321;48.398;11.754;2022-08-21T08:04:06;96648.78;;;22.99;64.01
60479;BME280;46321;48.398;11.754;2022-08-21T08:06:31;96655.09;;;23.10;63.83
60479;BME280;46321;48.398;11.754;2022-08-21T08:08:56;96648.06;;;23.31;62.91
60479;BME280;46321;48.398;11.754;2022-08-21T08:11:22;96655.75;;;23.73;64.92
60479;BME280;46321;48.398;11.754;2022-08-21T08:13:49;96655.66;;;23.90;64.62
60479;BME280;46321;48.398;11.754;2022-08-21T08:16:15;96647.97;;;24.15;60.67
60479;BME280;46321;48.398;11.754;2022-08-21T08:18:41;96650.34;;;24.06;59.44
60479;BME280;46321;48.398;11.754;2022-08-21T08:21:08;96649.97;;;24.24;61.27
60479;BME280;46321;48.398;11.754;2022-08-21T08:23:33;96653.94;;;24.55;60.45
60479;BME280;46321;48.398;11.754;2022-08-21T08:25:59;96647.66;;;25.03;59.78
60479;BME280;46321;48.398;11.754;2022-08-21T08:28:24;96643.44;;;25.54;58.31
60479;BME280;46321;48.398;11.754;2022-08-21T08:30:50;96647.31;;;25.84;55.93
60479;BME280;46321;48.398;11.754;2022-08-21T08:33:16;96645.66;;;26.10;55.81
60479;BME280;46321;48.398;11.754;2022-08-21T08:35:46;96640.47;;;26.34;55.56
60479;BME280;46321;48.398;11.754;2022-08-21T08:38:13;96629.09;;;26.48;52.60
60479;BME280;46321;48.398;11.754;2022-08-21T08:41:02;96636.59;;;26.72;53.19
60479;BME280;46321;48.398;11.754;2022-08-21T08:43:32;96629.38;;;27.07;52.00
60479;BME280;46321;48.398;11.754;2022-08-21T08:46:02;96629.44;;;27.48;51.94
60479;BME280;46321;48.398;11.754;2022-08-21T08:51:26;96638.53;;;27.27;50.11
60479;BME280;46321;48.398;11.754;2022-08-21T08:53:58;96641.66;;;26.94;51.30
60479;BME280;46321;48.398;11.754;2022-08-21T08:56:30;96639.13;;;27.08;51.61
60479;BME280;46321;48.398;11.754;2022-08-21T08:59:01;96640.41;;;27.72;51.25
60479;BME280;46321;48.398;11.754;2022-08-21T09:01:27;96639.91;;;28.30;48.63
60479;BME280;46321;48.398;11.754;2022-08-21T09:03:53;96639.28;;;28.14;47.47
60479;BME280;46321;48.398;11.754;2022-08-21T09:12:18;96638.22;;;28.64;47.15
60479;BME280;46321;48.398;11.754;2022-08-21T09:15:45;96647.44;;;28.43;48.27
60479;BME280;46321;48.398;11.754;2022-08-21T09:18:02;96633.66;;;28.59;47.07
60479;BME280;46321;48.398;11.754;2022-08-21T09:20:37;96634.22;;;28.31;47.53
60479;BME280;46321;48.398;11.754;2022-08-21T09:25:58;96622.47;;;29.29;46.32
60479;BME280;46321;48.398;11.754;2022-08-21T09:28:31;96617.13;;;30.10;42.94
60479;BME280;46321;48.398;11.754;2022-08-21T09:30:56;96621.94;;;29.99;43.55
60479;BME280;46321;48.398;11.754;2022-08-21T09:33:28;96625.34;;;29.38;43.64
60479;BME280;46321;48.398;11.754;2022-08-21T09:35:55;96629.59;;;28.81;45.39
60479;BME280;46321;48.398;11.754;2022-08-21T09:38:32;96629.66;;;28.21;47.12
60479;BME280;46321;48.398;11.754;2022-08-21T09:41:05;96629.03;;;28.60;48.11
60479;BME280;46321;48.398;11.754;2022-08-21T09:43:31;96626.91;;;30.11;44.30
60479;BME280;46321;48.398;11.754;2022-08-21T09:46:21;96616.13;;;31.19;39.52
60479;BME280;46321;48.398;11.754;2022-08-21T09:48:52;96617.50;;;32.54;38.40
60479;BME280;46321;48.398;11.754;2022-08-21T09:51:22;96610.91;;;32.15;38.23
60479;BME280;46321;48.398;11.754;2022-08-21T09:53:52;96619.19;;;32.82;37.32
60479;BME280;46321;48.398;11.754;2022-08-21T09:56:24;96615.72;;;31.63;38.20
60479;BME280;46321;48.398;11.754;2022-08-21T09:59:25;96610.31;;;30.41;39.67
60479;BME280;46321;48.398;11.754;2022-08-21T10:01:51;96607.13;;;29.72;41.17
60479;BME280;46321;48.398;11.754;2022-08-21T10:04:36;96608.63;;;29.25;42.00
60479;BME280;46321;48.398;11.754;2022-08-21T10:07:12;96608.03;;;28.85;43.09
60479;BME280;46321;48.398;11.754;2022-08-21T10:09:38;96610.38;;;28.72;43.03
60479;BME280;46321;48.398;11.754;2022-08-21T10:18:07;96595.13;;;30.77;41.31
60479;BME280;46321;48.398;11.754;2022-08-21T10:20:44;96598.13;;;33.09;36.96
60479;BME280;46321;48.398;11.754;2022-08-21T10:28:40;96583.16;;;33.69;33.99
60479;BME280;46321;48.398;11.754;2022-08-21T10:36:45;96600.78;;;30.95;38.05
60479;BME280;46321;48.398;11.754;2022-08-21T10:39:15;96601.16;;;30.17;39.70
60479;BME280;46321;48.398;11.754;2022-08-21T10:44:34;96593.31;;;30.30;40.45
60479;BME280;46321;48.398;11.754;2022-08-21T10:50:29;96583.78;;;29.46;41.37
60479;BME280;46321;48.398;11.754;2022-08-21T10:55:37;96589.50;;;28.13;44.75
60479;BME280;46321;48.398;11.754;2022-08-21T10:58:09;96594.28;;;27.62;46.51
60479;BME280;46321;48.398;11.754;2022-08-21T11:00:45;96592.44;;;27.17;46.50
60479;BME280;46321;48.398;11.754;2022-08-21T11:03:16;96591.50;;;26.81;48.50
60479;BME280;46321;48.398;11.754;2022-08-21T11:05:50;96591.28;;;26.67;48.99
60479;BME280;46321;48.398;11.754;2022-08-21T11:08:26;96591.84;;;27.20;50.14
60479;BME280;46321;48.398;11.754;2022-08-21T11:11:01;96586.72;;;27.53;47.09
60479;BME280;46321;48.398;11.754;2022-08-21T11:13:55;96588.38;;;27.49;47.21
60479;BME280;46321;48.398;11.754;2022-08-21T11:16:32;96577.72;;;27.23;45.90
60479;BME280;46321;48.398;11.754;2022-08-21T11:19:25;96581.63;;;27.01;48.12
60479;BME280;46321;48.398;11.754;2022-08-21T11:30:00;96556.81;;;26.68;48.72
60479;BME280;46321;48.398;11.754;2022-08-21T11:32:31;96562.25;;;26.62;48.64
60479;BME280;46321;48.398;11.754;2022-08-21T11:35:15;96553.94;;;26.43;48.99
60479;BME280;46321;48.398;11.754;2022-08-21T11:43:43;96544.84;;;25.92;49.78
60479;BME280;46321;48.398;11.754;2022-08-21T11:46:28;96553.72;;;26.08;49.34
60479;BME280;46321;48.398;11.754;2022-08-21T11:49:43;96547.22;;;26.09;49.29
60479;BME280;46321;48.398;11.754;2022-08-21T11:52:18;96551.84;;;26.09;49.83
60479;BME280;46321;48.398;11.754;2022-08-21T11:54:54;96552.41;;;25.74;49.87
60479;BME280;46321;48.398;11.754;2022-08-21T11:57:32;96546.19;;;25.68;49.85
60479;BME280;46321;48.398;11.754;2022-08-21T12:00:16;96551.06;;;25.45;50.41
60479;BME280;46321;48.398;11.754;2022-08-21T12:02:53;96543.75;;;25.56;52.20
60479;BME280;46321;48.398;11.754;2022-08-21T12:05:40;96537.78;;;25.59;49.46
60479;BME280;46321;48.398;11.754;2022-08-21T12:08:13;96534.84;;;25.71;49.44
60479;BME280;46321;48.398;11.754;2022-08-21T12:10:46;96532.91;;;25.77;49.53
60479;BME280;46321;48.398;11.754;2022-08-21T12:13:24;96530.75;;;25.84;49.89
60479;BME280;46321;48.398;11.754;2022-08-21T12:15:50;96530.19;;;25.98;49.75
60479;BME280;46321;48.398;11.754;2022-08-21T12:18:22;96530.44;;;26.07;48.79
60479;BME280;46321;48.398;11.754;2022-08-21T12:21:24;96527.66;;;26.23;48.27
60479;BME280;46321;48.398;11.754;2022-08-21T12:26:35;96525.72;;;26.39;49.42
60479;BME280;46321;48.398;11.754;2022-08-21T12:29:11;96514.06;;;26.38;48.12
60479;BME280;46321;48.398;11.754;2022-08-21T12:31:48;96515.94;;;26.33;47.34
60479;BME280;46321;48.398;11.754;2022-08-21T12:34:15;96519.78;;;26.26;48.37
60479;BME280;46321;48.398;11.754;2022-08-21T12:36:54;96513.53;;;26.26;45.66
60479;BME280;46321;48.398;11.754;2022-08-21T12:39:27;96505.97;;;26.17;47.69
60479;BME280;46321;48.398;11.754;2022-08-21T12:42:18;96507.63;;;26.18;47.01
60479;BME280;46321;48.398;11.754;2022-08-21T12:44:49;96504.38;;;26.06;45.08
60479;BME280;46321;48.398;11.754;2022-08-21T12:47:34;96502.78;;;26.00;46.95
60479;BME280;46321;48.398;11.754;2022-08-21T12:50:09;96500.06;;;26.00;48.39
60479;BME280;46321;48.398;11.754;2022-08-21T12:52:41;96492.72;;;26.05;47.59
60479;BME280;46321;48.398;11.754;2022-08-21T12:55:13;96493.56;;;26.01;47.16
60479;BME280;46321;48.398;11.754;2022-08-21T12:57:41;96478.94;;;25.96;47.39
60479;BME280;46321;48.398;11.754;2022-08-21T13:00:09;96487.91;;;25.92;48.32
60479;BME280;46321;48.398;11.754;2022-08-21T13:02:44;96483.59;;;25.80;48.63
60479;BME280;46321;48.398;11.754;2022-08-21T13:05:14;96474.34;;;25.92;47.11
60479;BME280;46321;48.398;11.754;2022-08-21T13:07:45;96486.50;;;26.00;45.39
60479;BME280;46321;48.398;11.754;2022-08-21T13:10:24;96477.56;;;26.04;46.69
60479;BME280;46321;48.398;11.754;2022-08-21T13:12:54;96471.88;;;26.01;44.79
60479;BME280;46321;48.398;11.754;2022-08-21T13:15:27;96472.72;;;25.91;44.81
60479;BME280;46321;48.398;11.754;2022-08-21T13:17:53;96475.72;;;25.79;46.46
60479;BME280;46321;48.398;11.754;2022-08-21T13:20:23;96485.50;;;25.75;47.46
60479;BME280;46321;48.398;11.754;2022-08-21T13:22:49;96485.50;;;25.69;44.64
60479;BME280;46321;48.398;11.754;2022-08-21T13:25:17;96476.81;;;25.62;44.92
60479;BME280;46321;48.398;11.754;2022-08-21T13:27:45;96472.75;;;25.59;45.81
60479;BME280;46321;48.398;11.754;2022-08-21T13:30:21;96477.38;;;25.54;46.52
60479;BME280;46321;48.398;11.754;2022-08-21T13:32:55;96471.41;;;25.57;46.00
60479;BME280;46321;48.398;11.754;2022-08-21T13:35:26;96464.63;;;25.59;46.55
60479;BME280;46321;48.398;11.754;2022-08-21T13:37:54;96468.69;;;25.62;47.46
60479;BME280;46321;48.398;11.754;2022-08-21T13:40:28;96461.63;;;25.66;46.78
60479;BME280;46321;48.398;11.754;2022-08-21T13:42:54;96450.53;;;25.68;44.70
60479;BME280;46321;48.398;11.754;2022-08-21T13:45:26;96449.97;;;25.66;45.85
60479;BME280;46321;48.398;11.754;2022-08-21T13:47:52;96447.56;;;25.59;45.15